Time;durP1;ratioP1;P1;durP2;ratioP2;P2;SDS_P1;SDS_P2;PMS_P1;PMS_P2;Temp;Humidity;BMP_temperature;BMP_pressure;BME280_temperature;BME280_humidity;BME280_pressure;Samples;Min_cycle;Max_cycle;Signal;HPM_P1;HPM_P2
2023/04/01 00:02:18;;;;;;;5.97;1.83;;;;;;;;;;5032076;28;20041;-69
2023/04/01 00:04:44;;;;;;;11.32;2.25;;;;;;;;;;5032964;28;20502;-69
2023/04/01 00:07:10;;;;;;;17.65;3.22;;;;;;;;;;5034036;28;20098;-68
2023/04/01 00:09:37;;;;;;;8.35;1.85;;;;;;;;;;5033187;28;20459;-69
2023/04/01 00:12:03;;;;;;;9.55;2.40;;;;;;;;;;5033336;28;20395;-68
2023/04/01 00:14:29;;;;;;;6.07;2.00;;;;;;;;;;5033768;28;20607;-69
2023/04/01 00:16:55;;;;;;;5.80;1.95;;;;;;;;;;5033593;28;20474;-69
2023/04/01 00:19:21;;;;;;;6.82;2.08;;;;;;;;;;5032417;28;20132;-69
2023/04/01 00:21:47;;;;;;;9.27;2.35;;;;;;;;;;5030721;28;20677;-69
2023/04/01 00:24:13;;;;;;;10.52;2.20;;;;;;;;;;5032435;28;20427;-68
2023/04/01 00:26:42;;;;;;;7.88;1.92;;;;;;;;;;5031378;28;20359;-69
2023/04/01 00:29:07;;;;;;;9.82;2.38;;;;;;;;;;5028063;28;20053;-69
2023/04/01 00:31:33;;;;;;;9.65;2.25;;;;;;;;;;5013187;28;20034;-69
2023/04/01 00:33:59;;;;;;;8.20;1.77;;;;;;;;;;4994578;28;20476;-69
2023/04/01 00:36:25;;;;;;;7.57;1.88;;;;;;;;;;5011871;28;20112;-68
2023/04/01 00:38:51;;;;;;;7.65;2.17;;;;;;;;;;5010830;28;20037;-68
2023/04/01 00:41:19;;;;;;;9.43;2.22;;;;;;;;;;5011752;28;20037;-68
2023/04/01 00:43:47;;;;;;;11.23;2.35;;;;;;;;;;5013397;28;20088;-69
2023/04/01 00:46:14;;;;;;;9.02;2.00;;;;;;;;;;5028405;28;20484;-68
2023/04/01 00:48:45;;;;;;;11.07;2.17;;;;;;;;;;5013242;28;20026;-69
2023/04/01 00:51:15;;;;;;;11.45;2.20;;;;;;;;;;5011662;28;20037;-69
2023/04/01 00:53:46;;;;;;;8.07;1.90;;;;;;;;;;5013586;28;20038;-69
2023/04/01 00:56:20;;;;;;;12.40;2.58;;;;;;;;;;5012075;28;20022;-68
2023/04/01 00:58:51;;;;;;;6.55;2.17;;;;;;;;;;5012130;28;20388;-70
2023/04/01 01:01:17;;;;;;;14.90;2.17;;;;;;;;;;5011641;28;20195;-68
2023/04/01 01:03:42;;;;;;;9.60;2.30;;;;;;;;;;5012060;28;20073;-68
2023/04/01 01:06:31;;;;;;;9.80;2.20;;;;;;;;;;5011607;28;20034;-69
2023/04/01 01:09:15;;;;;;;18.30;2.35;;;;;;;;;;5011832;28;20515;-69
2023/04/01 01:12:14;;;;;;;12.43;2.67;;;;;;;;;;5020520;28;20128;-68
2023/04/01 01:14:52;;;;;;;8.75;2.47;;;;;;;;;;5043215;28;20025;-69
2023/04/01 01:17:44;;;;;;;7.47;1.70;;;;;;;;;;5031693;28;20030;-68
2023/04/01 01:20:47;;;;;;;10.38;3.17;;;;;;;;;;5028789;28;20046;-68
2023/04/01 01:23:32;;;;;;;9.20;1.90;;;;;;;;;;5032426;28;20044;-68
2023/04/01 01:26:20;;;;;;;11.00;2.40;;;;;;;;;;5031466;28;20484;-68
2023/04/01 01:29:01;;;;;;;7.95;2.20;;;;;;;;;;5030593;28;20037;-69
2023/04/01 01:31:42;;;;;;;11.13;2.80;;;;;;;;;;5032477;28;20395;-69
2023/04/01 01:34:32;;;;;;;10.38;2.28;;;;;;;;;;5032661;28;20029;-69
2023/04/01 01:37:03;;;;;;;6.13;1.95;;;;;;;;;;5032580;28;20071;-69
2023/04/01 01:39:33;;;;;;;7.68;2.20;;;;;;;;;;5030373;28;20042;-69
2023/04/01 01:42:05;;;;;;;10.13;2.28;;;;;;;;;;5027882;28;20072;-69
2023/04/01 01:44:33;;;;;;;10.95;2.15;;;;;;;;;;5030640;28;20485;-69
2023/04/01 01:46:59;;;;;;;10.38;2.00;;;;;;;;;;5032297;28;20029;-69
2023/04/01 01:49:27;;;;;;;9.07;2.58;;;;;;;;;;5030857;28;20037;-69
2023/04/01 01:51:53;;;;;;;9.32;2.78;;;;;;;;;;5027612;28;20018;-69
2023/04/01 01:54:19;;;;;;;8.20;2.47;;;;;;;;;;5030879;28;20036;-69
2023/04/01 01:56:48;;;;;;;7.90;2.67;;;;;;;;;;5014524;28;20017;-69
2023/04/01 01:59:17;;;;;;;7.30;2.67;;;;;;;;;;5030879;28;20088;-69
2023/04/01 02:01:49;;;;;;;7.93;2.45;;;;;;;;;;5027499;28;20526;-69
2023/04/01 02:04:16;;;;;;;10.70;2.97;;;;;;;;;;5030604;28;20124;-69
2023/04/01 02:06:49;;;;;;;5.78;1.92;;;;;;;;;;5030560;28;20041;-69
2023/04/01 02:09:16;;;;;;;7.13;2.50;;;;;;;;;;5030790;28;20033;-69
2023/04/01 02:11:48;;;;;;;9.23;2.58;;;;;;;;;;5030616;28;20017;-68
2023/04/01 02:14:18;;;;;;;6.90;2.37;;;;;;;;;;5030715;28;20403;-68
2023/04/01 02:17:07;;;;;;;12.32;2.40;;;;;;;;;;5030813;28;20324;-69
2023/04/01 02:19:39;;;;;;;12.52;2.80;;;;;;;;;;5031494;28;20395;-69
2023/04/01 02:22:10;;;;;;;8.80;2.47;;;;;;;;;;5030445;28;20030;-68
2023/04/01 02:24:39;;;;;;;5.40;2.05;;;;;;;;;;5030467;28;20025;-68
2023/04/01 02:27:05;;;;;;;9.10;2.40;;;;;;;;;;5031687;28;20025;-68
2023/04/01 02:29:31;;;;;;;8.80;2.85;;;;;;;;;;5036885;28;20128;-68
2023/04/01 02:31:58;;;;;;;6.10;2.10;;;;;;;;;;5037138;28;20211;-68
2023/04/01 02:34:26;;;;;;;10.10;2.30;;;;;;;;;;5036882;28;20515;-68
2023/04/01 02:36:53;;;;;;;7.20;1.80;;;;;;;;;;5036964;28;20028;-69
2023/04/01 02:39:18;;;;;;;4.93;1.90;;;;;;;;;;5036834;28;20083;-69
2023/04/01 02:41:45;;;;;;;10.93;2.50;;;;;;;;;;5033604;28;20018;-69
2023/04/01 02:44:12;;;;;;;12.20;2.97;;;;;;;;;;5035354;28;20439;-69
2023/04/01 02:46:38;;;;;;;7.93;2.30;;;;;;;;;;5028791;28;20025;-68
2023/04/01 02:49:04;;;;;;;7.75;2.33;;;;;;;;;;5036866;28;20036;-68
2023/04/01 02:51:30;;;;;;;7.55;2.22;;;;;;;;;;5036608;28;20426;-69
2023/04/01 02:53:56;;;;;;;8.70;2.10;;;;;;;;;;5036778;28;20058;-69
2023/04/01 02:56:22;;;;;;;9.70;2.30;;;;;;;;;;5036471;28;20022;-69
2023/04/01 02:58:48;;;;;;;10.00;2.35;;;;;;;;;;5036740;28;20483;-69
2023/04/01 03:01:14;;;;;;;9.95;2.50;;;;;;;;;;5036439;28;20475;-68
2023/04/01 03:03:39;;;;;;;8.70;2.15;;;;;;;;;;5038009;28;20037;-70
2023/04/01 03:06:07;;;;;;;8.75;2.03;;;;;;;;;;5036510;28;20104;-68
2023/04/01 03:08:33;;;;;;;4.85;1.88;;;;;;;;;;5036593;28;20041;-69
2023/04/01 03:10:59;;;;;;;9.07;2.30;;;;;;;;;;5036523;28;20026;-69
2023/04/01 03:13:25;;;;;;;13.90;3.30;;;;;;;;;;5036612;28;20029;-68
2023/04/01 03:15:51;;;;;;;8.27;2.28;;;;;;;;;;5036732;28;20490;-68
2023/04/01 03:18:17;;;;;;;9.95;2.08;;;;;;;;;;5036864;28;20033;-69
2023/04/01 03:20:43;;;;;;;17.08;2.65;;;;;;;;;;5036597;28;20057;-69
2023/04/01 03:23:09;;;;;;;13.00;2.42;;;;;;;;;;5036893;28;20067;-69
2023/04/01 03:25:36;;;;;;;8.52;2.45;;;;;;;;;;5036121;28;20029;-68
2023/04/01 03:28:03;;;;;;;13.95;5.68;;;;;;;;;;5033308;28;20120;-68
2023/04/01 03:30:30;;;;;;;14.32;4.65;;;;;;;;;;5034957;28;20032;-69
2023/04/01 03:32:58;;;;;;;12.40;2.83;;;;;;;;;;5037626;28;20112;-68
2023/04/01 03:35:24;;;;;;;13.07;2.45;;;;;;;;;;5036438;28;20071;-69
2023/04/01 03:37:51;;;;;;;11.57;2.58;;;;;;;;;;5033120;28;20053;-69
2023/04/01 03:40:17;;;;;;;9.25;2.20;;;;;;;;;;5029992;28;20487;-69
2023/04/01 03:42:43;;;;;;;9.77;2.92;;;;;;;;;;5033216;28;20036;-68
2023/04/01 03:45:09;;;;;;;17.58;4.07;;;;;;;;;;5029901;28;20101;-69
2023/04/01 03:47:35;;;;;;;10.23;2.55;;;;;;;;;;5032162;28;20034;-68
2023/04/01 03:50:01;;;;;;;6.78;2.63;;;;;;;;;;5033039;28;20024;-68
2023/04/01 03:52:27;;;;;;;12.90;3.40;;;;;;;;;;5032879;28;20040;-68
2023/04/01 03:54:52;;;;;;;12.57;3.10;;;;;;;;;;5033163;28;20060;-69
2023/04/01 03:57:19;;;;;;;11.35;2.38;;;;;;;;;;5032810;28;20033;-69
2023/04/01 03:59:44;;;;;;;7.50;3.33;;;;;;;;;;5033049;28;20022;-68
2023/04/01 04:02:10;;;;;;;9.98;2.92;;;;;;;;;;5033121;28;20029;-68
2023/04/01 04:04:37;;;;;;;13.68;2.97;;;;;;;;;;5032201;28;20037;-68
2023/04/01 04:07:03;;;;;;;7.85;2.60;;;;;;;;;;5016248;28;20376;-68
2023/04/01 04:09:37;;;;;;;14.23;2.88;;;;;;;;;;5032624;28;20022;-68
2023/04/01 04:12:05;;;;;;;11.10;2.72;;;;;;;;;;5012641;28;20129;-68
2023/04/01 04:14:31;;;;;;;10.20;2.35;;;;;;;;;;5031087;28;20018;-68
2023/04/01 04:16:57;;;;;;;15.00;3.20;;;;;;;;;;5032309;28;20029;-68
2023/04/01 04:19:23;;;;;;;13.30;2.92;;;;;;;;;;5031893;28;20072;-68
2023/04/01 04:21:49;;;;;;;12.68;3.08;;;;;;;;;;5032224;28;20038;-68
2023/04/01 04:24:15;;;;;;;15.05;3.58;;;;;;;;;;5032599;28;20067;-69
2023/04/01 04:26:59;;;;;;;13.35;3.10;;;;;;;;;;5032316;28;20064;-69
2023/04/01 04:29:25;;;;;;;11.30;2.60;;;;;;;;;;5032209;28;20033;-69
2023/04/01 04:31:51;;;;;;;14.25;3.47;;;;;;;;;;5032276;28;20487;-69
2023/04/01 04:34:18;;;;;;;10.43;2.88;;;;;;;;;;5032113;28;20136;-68
2023/04/01 04:36:44;;;;;;;15.38;3.47;;;;;;;;;;5033347;28;20499;-69
2023/04/01 04:39:10;;;;;;;8.10;2.42;;;;;;;;;;5031807;28;20463;-68
2023/04/01 04:41:38;;;;;;;12.82;3.47;;;;;;;;;;5031725;28;20079;-70
2023/04/01 04:44:04;;;;;;;17.30;4.63;;;;;;;;;;5031718;28;20086;-71
2023/04/01 04:46:31;;;;;;;13.48;3.17;;;;;;;;;;5031272;28;20067;-70
2023/04/01 04:49:07;;;;;;;8.35;2.40;;;;;;;;;;5031581;28;20175;-70
2023/04/01 04:51:38;;;;;;;11.75;2.72;;;;;;;;;;5013855;28;20224;-69
2023/04/01 04:54:05;;;;;;;14.57;3.13;;;;;;;;;;5032035;28;20124;-69
2023/04/01 04:56:51;;;;;;;9.30;2.90;;;;;;;;;;5031919;28;20052;-69
2023/04/01 04:59:17;;;;;;;14.00;3.53;;;;;;;;;;5032668;28;20040;-69
2023/04/01 05:01:54;;;;;;;12.73;3.20;;;;;;;;;;5031569;28;20540;-69
2023/04/01 05:04:20;;;;;;;11.82;3.83;;;;;;;;;;5031866;28;20029;-69
2023/04/01 05:06:46;;;;;;;17.83;3.67;;;;;;;;;;5030803;28;20128;-69
2023/04/01 05:09:12;;;;;;;13.80;3.80;;;;;;;;;;5027076;28;20030;-70
2023/04/01 05:11:40;;;;;;;26.88;5.57;;;;;;;;;;5030088;28;20167;-70
2023/04/01 05:14:05;;;;;;;16.75;3.72;;;;;;;;;;5032234;28;20037;-70
2023/04/01 05:16:32;;;;;;;12.80;3.08;;;;;;;;;;5031071;28;20387;-70
2023/04/01 05:18:58;;;;;;;13.93;4.05;;;;;;;;;;5031026;28;20040;-70
2023/04/01 05:21:24;;;;;;;16.45;4.75;;;;;;;;;;5030926;28;20037;-69
2023/04/01 05:23:52;;;;;;;19.02;3.72;;;;;;;;;;5031131;28;20037;-69
2023/04/01 05:26:18;;;;;;;14.27;4.20;;;;;;;;;;5030537;28;20026;-69
2023/04/01 05:28:44;;;;;;;12.63;3.50;;;;;;;;;;5031205;28;20435;-70
2023/04/01 05:31:09;;;;;;;34.67;7.13;;;;;;;;;;5030843;28;20067;-70
2023/04/01 05:33:40;;;;;;;23.55;4.70;;;;;;;;;;5030957;28;20033;-70
2023/04/01 05:36:12;;;;;;;21.65;5.25;;;;;;;;;;5030663;28;20036;-69
2023/04/01 05:38:39;;;;;;;21.90;5.40;;;;;;;;;;5045774;28;20086;-69
2023/04/01 05:41:07;;;;;;;26.75;4.90;;;;;;;;;;5050553;28;20044;-70
2023/04/01 05:43:38;;;;;;;22.33;5.38;;;;;;;;;;5050398;28;20033;-70
2023/04/01 05:46:23;;;;;;;24.10;5.43;;;;;;;;;;5051243;28;20045;-70
2023/04/01 05:48:55;;;;;;;17.52;4.55;;;;;;;;;;5051716;28;20502;-70
2023/04/01 05:51:24;;;;;;;19.33;4.90;;;;;;;;;;5049983;28;20116;-70
2023/04/01 05:53:50;;;;;;;16.92;4.95;;;;;;;;;;5052103;28;20021;-70
2023/04/01 05:56:18;;;;;;;23.35;5.30;;;;;;;;;;5050393;28;20053;-70
2023/04/01 05:58:51;;;;;;;21.60;5.03;;;;;;;;;;5050395;28;20111;-70
2023/04/01 06:01:18;;;;;;;15.13;3.83;;;;;;;;;;5050194;28;20406;-69
2023/04/01 06:03:45;;;;;;;18.25;3.58;;;;;;;;;;5049486;28;20025;-70
2023/04/01 06:06:15;;;;;;;19.13;3.30;;;;;;;;;;5050179;28;20186;-70
2023/04/01 06:08:42;;;;;;;14.52;3.83;;;;;;;;;;5050414;28;20029;-70
2023/04/01 06:11:45;;;;;;;25.23;4.80;;;;;;;;;;5050017;28;20021;-70
2023/04/01 06:14:40;;;;;;;12.73;2.85;;;;;;;;;;5050019;28;20395;-70
2023/04/01 06:17:50;;;;;;;16.27;4.35;;;;;;;;;;5026974;28;20478;-69
2023/04/01 06:20:29;;;;;;;13.18;4.00;;;;;;;;;;5043414;28;20499;-70
2023/04/01 06:23:13;;;;;;;14.60;3.33;;;;;;;;;;5049822;28;20033;-70
2023/04/01 06:25:54;;;;;;;13.38;3.75;;;;;;;;;;5049844;28;20036;-70
2023/04/01 06:28:48;;;;;;;10.60;2.88;;;;;;;;;;5050048;28;20032;-71
2023/04/01 06:31:46;;;;;;;21.05;3.88;;;;;;;;;;5049857;28;20502;-71
2023/04/01 06:34:15;;;;;;;16.63;3.55;;;;;;;;;;5049976;28;20041;-71
2023/04/01 06:36:52;;;;;;;14.38;2.78;;;;;;;;;;5049751;28;20052;-73
2023/04/01 06:39:41;;;;;;;13.73;3.50;;;;;;;;;;5049831;28;20167;-73
2023/04/01 06:42:17;;;;;;;17.05;4.25;;;;;;;;;;5049493;28;20029;-73
2023/04/01 06:45:14;;;;;;;10.60;3.10;;;;;;;;;;5049955;28;20102;-72
2023/04/01 06:48:31;;;;;;;13.73;3.42;;;;;;;;;;5051662;28;20051;-71
2023/04/01 06:51:34;;;;;;;13.20;3.60;;;;;;;;;;5050607;28;20049;-70
2023/04/01 06:54:24;;;;;;;17.10;3.07;;;;;;;;;;5051031;28;20067;-71
2023/04/01 06:57:32;;;;;;;9.93;2.78;;;;;;;;;;5050885;28;20407;-71
2023/04/01 07:00:03;;;;;;;9.95;2.65;;;;;;;;;;5049218;28;20029;-70
2023/04/01 07:02:45;;;;;;;9.05;2.60;;;;;;;;;;5050025;28;20044;-70
2023/04/01 07:05:13;;;;;;;9.98;2.53;;;;;;;;;;5049791;28;20029;-71
2023/04/01 07:07:43;;;;;;;8.85;2.42;;;;;;;;;;5049397;28;20049;-70
2023/04/01 07:10:17;;;;;;;10.90;2.60;;;;;;;;;;5049494;28;20033;-72
2023/04/01 07:13:06;;;;;;;10.48;2.80;;;;;;;;;;5051353;28;20099;-72
2023/04/01 07:15:43;;;;;;;4.93;2.53;;;;;;;;;;5053096;28;20049;-71
2023/04/01 07:18:43;;;;;;;11.60;3.00;;;;;;;;;;5054483;28;20108;-72
2023/04/01 07:21:31;;;;;;;8.55;2.22;;;;;;;;;;5052630;28;20140;-71
2023/04/01 07:24:19;;;;;;;14.10;3.13;;;;;;;;;;5053261;28;20398;-71
2023/04/01 07:26:56;;;;;;;9.93;2.17;;;;;;;;;;5052874;28;20403;-71
2023/04/01 07:29:26;;;;;;;11.15;2.50;;;;;;;;;;5052987;28;20044;-70
2023/04/01 07:32:16;;;;;;;7.80;2.33;;;;;;;;;;5053079;28;20155;-71
2023/04/01 07:34:50;;;;;;;11.60;2.67;;;;;;;;;;5035658;28;20121;-70
2023/04/01 07:37:27;;;;;;;8.77;2.05;;;;;;;;;;5016587;28;20483;-71
2023/04/01 07:40:05;;;;;;;10.80;2.67;;;;;;;;;;5032828;28;20521;-71
2023/04/01 07:42:46;;;;;;;10.30;2.92;;;;;;;;;;5032810;28;20446;-70
2023/04/01 07:45:33;;;;;;;10.40;2.72;;;;;;;;;;5032528;28;20029;-71
2023/04/01 07:48:14;;;;;;;11.10;2.22;;;;;;;;;;5032753;28;20056;-71
2023/04/01 07:50:47;;;;;;;13.40;2.30;;;;;;;;;;5032820;28;20041;-71
2023/04/01 07:53:36;;;;;;;6.40;2.30;;;;;;;;;;5032858;28;20038;-70
2023/04/01 07:56:15;;;;;;;10.23;2.55;;;;;;;;;;5032914;28;20118;-70
2023/04/01 07:59:07;;;;;;;12.15;2.25;;;;;;;;;;5033957;28;20037;-71
2023/04/01 08:02:08;;;;;;;9.65;2.80;;;;;;;;;;5032696;28;20045;-72
2023/04/01 08:04:42;;;;;;;11.85;2.58;;;;;;;;;;5032471;28;20029;-70
2023/04/01 08:07:20;;;;;;;10.13;2.25;;;;;;;;;;5032562;28;20207;-71
2023/04/01 08:10:13;;;;;;;11.10;2.33;;;;;;;;;;5032319;28;20036;-71
2023/04/01 08:13:48;;;;;;;11.60;2.60;;;;;;;;;;5031843;28;20077;-72
2023/04/01 08:16:51;;;;;;;10.38;2.83;;;;;;;;;;5035259;28;20414;-72
2023/04/01 08:19:40;;;;;;;6.35;2.10;;;;;;;;;;5033154;28;20063;-71
2023/04/01 08:22:17;;;;;;;8.55;2.63;;;;;;;;;;5033541;28;20034;-72
2023/04/01 08:24:46;;;;;;;9.50;2.47;;;;;;;;;;5033082;28;20037;-73
2023/04/01 08:27:34;;;;;;;13.07;2.53;;;;;;;;;;5015685;28;20030;-70
2023/04/01 08:30:04;;;;;;;12.32;2.28;;;;;;;;;;5032040;28;20033;-73
2023/04/01 08:32:41;;;;;;;10.45;2.10;;;;;;;;;;5032265;28;20406;-72
2023/04/01 08:35:24;;;;;;;9.15;2.83;;;;;;;;;;5032278;28;20044;-72
2023/04/01 08:37:55;;;;;;;8.25;2.38;;;;;;;;;;5015069;28;20033;-71
2023/04/01 08:40:54;;;;;;;6.05;2.40;;;;;;;;;;5063454;28;20120;-71
2023/04/01 08:43:41;;;;;;;8.20;2.25;;;;;;;;;;5044467;28;20044;-72
2023/04/01 08:46:51;;;;;;;11.35;2.00;;;;;;;;;;5031810;28;20069;-73
2023/04/01 08:49:38;;;;;;;7.72;2.25;;;;;;;;;;5031634;28;20037;-72
2023/04/01 08:52:17;;;;;;;9.80;2.17;;;;;;;;;;5031789;28;20120;-71
2023/04/01 08:55:21;;;;;;;11.35;2.58;;;;;;;;;;5031772;28;20128;-71
2023/04/01 08:58:11;;;;;;;7.82;2.22;;;;;;;;;;5023701;28;20041;-73
2023/04/01 09:00:53;;;;;;;8.10;2.40;;;;;;;;;;5029878;28;20034;-72
2023/04/01 09:03:38;;;;;;;10.55;2.55;;;;;;;;;;5031003;28;20099;-71
2023/04/01 09:06:07;;;;;;;10.48;2.45;;;;;;;;;;5031290;28;20037;-71
2023/04/01 09:08:57;;;;;;;10.15;3.08;;;;;;;;;;5031598;28;20245;-72
2023/04/01 09:11:27;;;;;;;9.75;2.20;;;;;;;;;;5027541;28;20144;-72
2023/04/01 09:14:30;;;;;;;6.78;2.35;;;;;;;;;;5032229;28;20014;-72
2023/04/01 09:17:43;;;;;;;9.20;2.22;;;;;;;;;;5035293;28;20424;-72
2023/04/01 09:20:30;;;;;;;7.50;2.75;;;;;;;;;;5031239;28;20495;-72
2023/04/01 09:23:10;;;;;;;10.82;2.63;;;;;;;;;;5031703;28;20033;-71
2023/04/01 09:26:14;;;;;;;6.15;2.20;;;;;;;;;;5031516;28;20029;-71
2023/04/01 09:28:44;;;;;;;5.30;1.85;;;;;;;;;;5030678;28;20450;-72
2023/04/01 09:31:47;;;;;;;7.03;2.50;;;;;;;;;;5030265;28;20065;-71
2023/04/01 09:35:05;;;;;;;9.35;2.75;;;;;;;;;;5044430;28;20033;-72
2023/04/01 09:37:35;;;;;;;11.15;2.80;;;;;;;;;;5043011;28;20506;-72
2023/04/01 09:40:31;;;;;;;10.35;2.80;;;;;;;;;;5029925;28;20029;-71
2023/04/01 09:43:12;;;;;;;10.25;2.70;;;;;;;;;;5030307;28;20033;-71
2023/04/01 09:46:14;;;;;;;7.43;2.75;;;;;;;;;;5031858;28;20075;-71
2023/04/01 09:48:43;;;;;;;11.45;2.88;;;;;;;;;;5030143;28;20029;-71
2023/04/01 09:51:27;;;;;;;6.40;2.50;;;;;;;;;;5027288;28;20080;-71
2023/04/01 09:53:54;;;;;;;9.95;2.55;;;;;;;;;;5029666;28;20025;-71
2023/04/01 09:56:23;;;;;;;8.68;2.45;;;;;;;;;;5031668;28;20018;-71
2023/04/01 09:59:07;;;;;;;7.57;2.40;;;;;;;;;;5030187;28;20075;-72
2023/04/01 10:02:42;;;;;;;10.23;2.65;;;;;;;;;;5043080;28;20072;-72
2023/04/01 10:05:43;;;;;;;10.77;2.42;;;;;;;;;;5047323;28;20021;-71
2023/04/01 10:08:19;;;;;;;8.85;2.47;;;;;;;;;;5029991;28;20149;-71
2023/04/01 10:11:10;;;;;;;11.77;2.15;;;;;;;;;;5030605;28;20120;-70
2023/04/01 10:13:49;;;;;;;8.95;2.60;;;;;;;;;;5027717;28;20038;-71
2023/04/01 10:16:38;;;;;;;8.63;2.90;;;;;;;;;;5027380;28;20112;-71
2023/04/01 10:19:40;;;;;;;12.85;2.40;;;;;;;;;;5021249;28;20395;-71
2023/04/01 10:22:29;;;;;;;12.00;2.33;;;;;;;;;;5026511;28;20586;-70
2023/04/01 10:25:30;;;;;;;9.48;1.90;;;;;;;;;;5029779;28;20120;-71
2023/04/01 10:28:23;;;;;;;11.43;2.60;;;;;;;;;;5030359;28;20064;-71
2023/04/01 10:31:33;;;;;;;10.25;2.80;;;;;;;;;;5026124;28;20037;-71
2023/04/01 10:34:21;;;;;;;10.32;2.70;;;;;;;;;;5005415;28;20056;-71
2023/04/01 10:36:55;;;;;;;9.98;2.70;;;;;;;;;;5029587;28;20033;-71
2023/04/01 10:39:50;;;;;;;13.07;2.80;;;;;;;;;;5029773;28;20128;-72
2023/04/01 10:42:55;;;;;;;9.52;2.72;;;;;;;;;;5029617;28;20068;-72
2023/04/01 10:46:08;;;;;;;10.98;2.60;;;;;;;;;;5035961;28;20391;-71
2023/04/01 10:48:51;;;;;;;12.52;3.42;;;;;;;;;;5031642;28;20074;-71
2023/04/01 10:51:33;;;;;;;13.73;2.90;;;;;;;;;;5033771;28;20443;-71
2023/04/01 10:54:05;;;;;;;12.88;3.20;;;;;;;;;;5033807;28;20439;-71
2023/04/01 10:56:51;;;;;;;11.38;2.83;;;;;;;;;;5034914;28;20380;-71
2023/04/01 11:00:16;;;;;;;10.52;2.25;;;;;;;;;;5033487;28;20238;-71
2023/04/01 11:02:57;;;;;;;9.75;3.20;;;;;;;;;;5035422;28;20041;-71
2023/04/01 11:05:41;;;;;;;14.00;2.90;;;;;;;;;;5034674;28;20369;-71
2023/04/01 11:08:32;;;;;;;13.80;2.70;;;;;;;;;;5033425;28;20037;-71
2023/04/01 11:11:11;;;;;;;9.40;3.20;;;;;;;;;;5016696;28;20033;-71
2023/04/01 11:14:01;;;;;;;12.70;2.90;;;;;;;;;;5033238;28;20033;-72
2023/04/01 11:16:39;;;;;;;12.60;2.83;;;;;;;;;;5029882;28;20117;-71
2023/04/01 11:19:27;;;;;;;17.25;2.47;;;;;;;;;;5025871;28;20034;-71
2023/04/01 11:22:09;;;;;;;14.60;2.90;;;;;;;;;;5032891;28;20029;-71
2023/04/01 11:25:15;;;;;;;9.15;3.38;;;;;;;;;;5024643;28;20030;-70
2023/04/01 11:28:27;;;;;;;12.95;2.72;;;;;;;;;;5032826;28;20065;-71
2023/04/01 11:31:15;;;;;;;18.92;3.25;;;;;;;;;;5032727;28;20044;-72
2023/04/01 11:33:56;;;;;;;10.35;2.70;;;;;;;;;;5032930;28;20050;-71
2023/04/01 11:36:43;;;;;;;9.15;2.17;;;;;;;;;;5034402;28;20021;-71
2023/04/01 11:39:23;;;;;;;13.90;2.85;;;;;;;;;;5029429;28;20492;-71
2023/04/01 11:42:24;;;;;;;13.43;2.53;;;;;;;;;;5028027;28;20455;-70
2023/04/01 11:45:17;;;;;;;9.80;2.47;;;;;;;;;;5027930;28;20090;-71
2023/04/01 11:48:05;;;;;;;9.65;2.67;;;;;;;;;;5013946;28;20492;-71
2023/04/01 11:50:53;;;;;;;13.88;2.60;;;;;;;;;;5030981;28;20034;-71
2023/04/01 11:53:59;;;;;;;12.90;2.85;;;;;;;;;;5031095;28;20068;-70
2023/04/01 11:56:59;;;;;;;13.70;2.90;;;;;;;;;;5033921;28;20484;-71
2023/04/01 11:59:45;;;;;;;13.50;2.65;;;;;;;;;;5034069;28;20087;-71
2023/04/01 12:02:26;;;;;;;23.17;3.17;;;;;;;;;;5029125;28;20484;-71
2023/04/01 12:04:56;;;;;;;13.85;3.42;;;;;;;;;;5032222;28;20033;-70
2023/04/01 12:07:44;;;;;;;13.38;3.08;;;;;;;;;;5033540;28;20029;-70
2023/04/01 12:10:21;;;;;;;15.30;2.55;;;;;;;;;;5033300;28;20052;-71
2023/04/01 12:13:07;;;;;;;11.55;3.83;;;;;;;;;;5033334;28;20040;-70
2023/04/01 12:15:59;;;;;;;7.63;2.35;;;;;;;;;;5033338;28;20514;-71
2023/04/01 12:18:38;;;;;;;7.10;2.10;;;;;;;;;;5024654;28;20060;-72
2023/04/01 12:21:29;;;;;;;10.70;2.42;;;;;;;;;;5029151;28;20037;-70
2023/04/01 12:24:28;;;;;;;12.43;2.10;;;;;;;;;;5030727;28;20471;-69
2023/04/01 12:27:06;;;;;;;12.50;3.10;;;;;;;;;;5028248;28;20376;-69
2023/04/01 12:29:32;;;;;;;11.55;2.38;;;;;;;;;;5029317;28;20129;-69
2023/04/01 12:32:03;;;;;;;10.30;3.08;;;;;;;;;;5029108;28;20112;-70
2023/04/01 12:35:11;;;;;;;8.18;2.72;;;;;;;;;;5030235;28;20301;-69
2023/04/01 12:37:50;;;;;;;11.48;2.53;;;;;;;;;;5022134;28;20045;-69
2023/04/01 12:40:34;;;;;;;9.25;2.13;;;;;;;;;;5028755;28;20075;-69
2023/04/01 12:43:25;;;;;;;9.18;2.25;;;;;;;;;;5029797;28;20049;-69
2023/04/01 12:46:18;;;;;;;10.95;2.65;;;;;;;;;;5009718;28;20442;-69
2023/04/01 12:49:25;;;;;;;9.20;2.95;;;;;;;;;;5017842;28;20045;-70
2023/04/01 12:52:00;;;;;;;17.35;2.53;;;;;;;;;;5028004;28;20037;-69
2023/04/01 12:54:54;;;;;;;9.70;2.63;;;;;;;;;;5027316;28;20033;-70
2023/04/01 12:57:29;;;;;;;;;;;;;;;;;;5028382;28;20084;-71
2023/04/01 13:00:27;;;;;;;8.75;2.40;;;;;;;;;;5027253;28;19917;-70
2023/04/01 13:02:55;;;;;;;8.95;2.30;;;;;;;;;;5049216;28;20040;-71
2023/04/01 13:05:21;;;;;;;6.85;2.10;;;;;;;;;;5047207;28;20041;-70
2023/04/01 13:08:07;;;;;;;6.90;2.53;;;;;;;;;;5048963;28;20124;-70
2023/04/01 13:10:35;;;;;;;5.28;1.98;;;;;;;;;;5047589;28;20045;-69
2023/04/01 13:13:22;;;;;;;8.82;2.03;;;;;;;;;;5048014;28;20044;-69
2023/04/01 13:16:20;;;;;;;8.90;2.20;;;;;;;;;;5047681;28;20051;-69
2023/04/01 13:19:03;;;;;;;6.10;2.00;;;;;;;;;;5047144;28;20143;-69
2023/04/01 13:21:48;;;;;;;6.20;1.95;;;;;;;;;;5047041;28;20111;-71
2023/04/01 13:24:29;;;;;;;3.85;1.88;;;;;;;;;;5048866;28;20063;-72
2023/04/01 13:27:16;;;;;;;7.13;2.20;;;;;;;;;;5051029;28;20445;-72
2023/04/01 13:30:02;;;;;;;11.10;2.22;;;;;;;;;;5049463;28;20555;-72
2023/04/01 13:33:05;;;;;;;13.93;2.53;;;;;;;;;;5050927;28;20111;-72
2023/04/01 13:35:51;;;;;;;5.40;1.70;;;;;;;;;;5047090;28;20540;-72
2023/04/01 13:38:50;;;;;;;4.93;1.58;;;;;;;;;;5050928;28;20262;-72
2023/04/01 13:41:38;;;;;;;5.72;2.03;;;;;;;;;;5030801;28;20059;-72
2023/04/01 13:44:10;;;;;;;8.30;1.98;;;;;;;;;;5031900;28;20029;-72
2023/04/01 13:47:07;;;;;;;7.95;1.95;;;;;;;;;;5032079;28;20475;-71
2023/04/01 13:49:39;;;;;;;4.38;1.63;;;;;;;;;;5031989;28;20037;-72
2023/04/01 13:52:28;;;;;;;10.63;2.65;;;;;;;;;;5049634;28;20043;-70
2023/04/01 13:54:56;;;;;;;6.60;2.00;;;;;;;;;;5030898;28;20052;-71
2023/04/01 13:57:40;;;;;;;9.05;2.20;;;;;;;;;;5051511;28;20449;-71
2023/04/01 14:00:21;;;;;;;11.55;2.40;;;;;;;;;;5051813;28;20395;-70
2023/04/01 14:02:59;;;;;;;8.88;2.33;;;;;;;;;;5052123;28;20447;-71
2023/04/01 14:05:44;;;;;;;8.05;2.53;;;;;;;;;;5052009;28;20044;-71
2023/04/01 14:08:25;;;;;;;9.13;2.50;;;;;;;;;;5051927;28;20052;-72
2023/04/01 14:11:13;;;;;;;8.55;2.40;;;;;;;;;;5051615;28;20033;-72
2023/04/01 14:13:57;;;;;;;9.43;2.28;;;;;;;;;;5052127;28;20033;-71
2023/04/01 14:16:48;;;;;;;9.85;2.05;;;;;;;;;;5051640;28;20466;-71
2023/04/01 14:19:39;;;;;;;12.15;2.88;;;;;;;;;;5051819;28;20119;-71
2023/04/01 14:22:22;;;;;;;5.25;2.38;;;;;;;;;;5051658;28;20492;-71
2023/04/01 14:25:06;;;;;;;10.27;2.08;;;;;;;;;;5051440;28;20131;-70
2023/04/01 14:27:47;;;;;;;9.75;3.20;;;;;;;;;;5051420;28;20033;-71
2023/04/01 14:30:32;;;;;;;8.57;2.75;;;;;;;;;;5051394;28;20041;-70
2023/04/01 14:33:16;;;;;;;11.05;3.00;;;;;;;;;;5051371;28;20150;-71
2023/04/01 14:39:12;;;;;;;8.05;2.72;;;;;;;;;;5068954;28;20383;-71
2023/04/01 14:42:15;;;;;;;13.13;2.90;;;;;;;;;;5062964;28;20064;-72
2023/04/01 14:44:41;;;;;;;7.25;2.72;;;;;;;;;;5065081;28;20483;-71
2023/04/01 14:47:50;;;;;;;13.30;3.30;;;;;;;;;;5067794;28;20024;-71
2023/04/01 14:50:21;;;;;;;8.40;2.75;;;;;;;;;;5062505;28;20560;-71
2023/04/01 14:52:57;;;;;;;10.13;2.67;;;;;;;;;;5066412;28;20043;-71
2023/04/01 14:55:55;;;;;;;12.02;2.60;;;;;;;;;;5068112;28;20040;-71
2023/04/01 14:58:26;;;;;;;7.57;2.45;;;;;;;;;;5060284;28;20443;-71
2023/04/01 15:01:01;;;;;;;7.03;2.97;;;;;;;;;;5067634;28;20517;-70
2023/04/01 15:03:36;;;;;;;13.57;2.92;;;;;;;;;;5068984;28;20029;-70
2023/04/01 15:06:24;;;;;;;12.20;2.85;;;;;;;;;;5060297;28;20040;-71
2023/04/01 15:09:08;;;;;;;9.18;2.80;;;;;;;;;;5068388;28;20033;-71
2023/04/01 15:11:46;;;;;;;8.20;2.50;;;;;;;;;;5066724;28;20509;-71
2023/04/01 15:14:47;;;;;;;10.40;2.40;;;;;;;;;;5067627;28;20060;-71
2023/04/01 15:17:34;;;;;;;8.77;2.17;;;;;;;;;;5048273;28;20048;-71
2023/04/01 15:20:40;;;;;;;6.88;2.40;;;;;;;;;;5066598;28;20045;-71
2023/04/01 15:23:07;;;;;;;7.22;2.47;;;;;;;;;;5067267;28;20028;-71
2023/04/01 15:26:07;;;;;;;10.93;2.63;;;;;;;;;;5066852;28;20376;-71
2023/04/01 15:28:35;;;;;;;7.38;2.53;;;;;;;;;;5053473;28;20313;-69
2023/04/01 15:31:13;;;;;;;11.07;2.75;;;;;;;;;;5065103;28;20020;-70
2023/04/01 15:33:51;;;;;;;7.68;2.42;;;;;;;;;;5067011;28;20397;-70
2023/04/01 15:36:32;;;;;;;16.73;3.33;;;;;;;;;;5066630;28;20116;-71
2023/04/01 15:39:03;;;;;;;7.70;2.70;;;;;;;;;;5066575;28;20036;-70
2023/04/01 15:41:44;;;;;;;10.57;2.60;;;;;;;;;;5066341;28;20029;-70
2023/04/01 15:44:42;;;;;;;7.45;2.70;;;;;;;;;;5074430;28;20028;-68
2023/04/01 15:47:25;;;;;;;6.82;2.70;;;;;;;;;;5066152;28;20033;-70
2023/04/01 15:50:03;;;;;;;10.13;2.30;;;;;;;;;;5061149;28;20482;-68
2023/04/01 15:52:50;;;;;;;9.25;2.65;;;;;;;;;;5053553;28;20112;-69